AirNav   Duncan Aviation - Near you to keep you flying
 
 1127 users online  

2T1 Muleshoe Municipal Airport
Muleshoe, Texas, USA

GOING TO MULESHOE?


FAA INFORMATION EFFECTIVE 26 JANUARY 2023

Location

FAA Identifier: 2T1
Lat/Long: 34-11-06.4910N 102-38-27.9530W
34-11.108183N 102-38.465883W
34.1851364,-102.6410981
(estimated)
Elevation: 3779.3 ft. / 1151.9 m (surveyed)
Variation: 09E (1990)
From city: 4 miles SE of MULESHOE, TX
Time zone: UTC -6 (UTC -5 during Daylight Saving Time)
Zip code: 79347

Airport Operations

Airport use: Open to the public
Activation date: 06/1989
Control tower: no
ARTCC: FORT WORTH CENTER
FSS: FORT WORTH FLIGHT SERVICE STATION
NOTAMs facility: FTW (NOTAM-D service available)
Attendance: UNATNDD
Wind indicator: lighted
Segmented circle: yes
Lights: ACTVT PAPI RWY 07 & 25; MIRL RWY 07/25 - 122.8.
Beacon: white-green (lighted land airport)
Operates sunset to sunrise.

Airport Communications

CTAF: 122.9
  • APCH/DEP CTL SVC PRVDD BY FORT WORTH ARTCC (ZFW) ON FREQS 126.45/316.1 (PLAINVIEW RCAG).

Nearby radio navigation aids

VOR radial/distance  VOR name  Freq  Var
TXOr141/21.0TEXICO VORTAC112.2011E

Airport Services

Fuel available: 100LL
100LL:FOR EMERGENCY FUEL CALL 806-272-4569, CENTRAL DISPATCH.
Parking: tiedowns

Runway Information

Runway 7/25

Dimensions: 5100 x 60 ft. / 1554 x 18 m
Surface: asphalt, in good condition
Weight bearing capacity: 
Single wheel: 12.5
Runway edge lights: medium intensity
RUNWAY 7  RUNWAY 25
Latitude: 34-11.017567N34-11.198633N
Longitude: 102-38.959550W102-37.971650W
Elevation: 3779.3 ft.3767.3 ft.
Traffic pattern: leftleft
Runway heading: 069 magnetic, 078 true249 magnetic, 258 true
Markings: nonprecision, in good conditionnonprecision, in good condition
Visual slope indicator: 2-light PAPI on left (3.00 degrees glide path)2-light PAPI on left (3.00 degrees glide path)
Touchdown point: yes, no lightsyes, no lights
Obstructions: 54 ft. pole, 1356 ft. from runway, 21:1 slope to clearnone

Airport Ownership and Management from official FAA records

Ownership: Publicly-owned
Owner: CITY OF MULESHOE
215 S FIRST ST
MULESHOE, TX 79347
Phone 806-272-4528
Manager: RAMON SANCHEZ
215 S FIRST ST
MULESHOE, TX 79347
Phone 806-272-4528
CITY/ARPT MGR

Airport Operational Statistics

Aircraft based on the field: 11
Single engine airplanes: 8
Multi engine airplanes: 3
    
Aircraft operations: avg 57/week *
67% local general aviation
33% transient general aviation
* for 12-month period ending 08 September 2021

Additional Remarks

DEER ON & INVOF ARPT.
FOR CD CTC FORT WORTH ARTCC AT 817-858-7584.

Instrument Procedures

NOTE: All procedures below are presented as PDF files. If you need a reader for these files, you should download the free Adobe Reader.

NOT FOR NAVIGATION. Please procure official charts for flight.
FAA instrument procedures published for use from 26 January 2023 at 0901Z to 23 February 2023 at 0900z.

 
IAPs - Instrument Approach Procedures
RNAV (GPS)-B   download

Other nearby airports with instrument procedures:

KLIU - Littlefield Taylor Brown Municipal Airport (20 nm SE)
KCVN - Clovis Regional Airport (26 nm NW)
KCVS - Cannon Air Force Base (36 nm W)
KPRZ - Portales Municipal Airport (38 nm W)
KLLN - Levelland Municipal Airport (40 nm S)
 
Loc | Ops | Rwys | IFR | FBO | Links
Com | Nav | Svcs | Stats | Notes

Chandler Aviation LLC
 
Area around 2T1 (Muleshoe Municipal Airport)
 
Road maps at: MapQuest Bing Google
 
Aerial photo
No photo
 
Sectional chart

 
Airport distance calculator
Flying to Muleshoe Municipal Airport? Find the distance to fly.

From to 2T1

Sunrise and sunset
Times for 06-Feb-2023
 Local
(UTC-6)
 Zulu
(UTC)
Morning civil twilight07:1913:19
Sunrise07:4513:45
Sunset18:2400:24
Evening civil twilight18:5100:51

Current date and time
Zulu (UTC)  07-Feb-2023 02:20:22
Local (UTC-6)  06-Feb-2023 20:20:22
 
METAR
KCVN 
25nm NW 
070156Z AUTO 35009KT 10SM CLR 07/M09 A2989 RMK AO2 SLP122 T00671094
KCVS 
35nm W 
070155Z AUTO 36015KT 10SM CLR 09/M11 A2986 RMK AO2 SLP095 T00851109 $
KLLN 
40nm S 
070155Z AUTO 35011KT 10SM CLR 15/M11 A2985 RMK AO2
KHRX 
43nm N 
070150Z AUTO 04020G33KT 7SM CLR 10/M07 A2991 RMK AO2 T00991075
KPVW 
46nm E 
070155Z AUTO 01008KT 10SM CLR 12/M09 A2986 RMK AO2 T01181091
TAF
KCVS 
35nm W 
061800Z 0618/0800 28012KT 9999 SKC QNH2982INS BECMG 0705/0706 03015G25KT 9999 SKC QNH2998INS BECMG 0707/0708 04030G40KT 9000 BLDU SKC QNH3000INS BECMG 0712/0713 04015G30KT 9000 -SN OVC050 QNH3007INS BECMG 0715/0716 04015G25KT 9000 -RA BR OVC050 QNH3013INS BECMG 0722/0723 05012G20KT 9000 -RA BR BKN050 QNH3014INS TX16/0622Z TN00/0713Z
NOTAMs
Click for the latest NOTAMs
NOTAMs are issued by the DoD/FAA and will open in a separate window not controlled by AirNav.

 

 
 

FBO, Fuel Providers, and Aircraft Ground Support

  
 Business Name 
 
 Contact 
 
 Services / Description 
 
Fuel Prices
 
Comments
  
City of Muleshoe 806-272-4528
[web site]
[email]
Aviation fuel

More info about City of Muleshoe
Phillips 66
100LL
SS $5.50 
 Updated 26-Jan-2023
 
   2 read write
SS=Self service
Update Fuel Prices
 

Would you like to see your business listed on this page?

 If your business provides an interesting product or service to pilots, flight crews, aircraft, or users of the Muleshoe Municipal Airport, you should consider listing it here.  To start the listing process, click on the button below
 
Add a business
 

Other Pages about Muleshoe Municipal Airport

www.city-of-muleshoe.com/MuleshoeMunicipalAirport
 
Update a link
 
Copyright © AirNav, LLC. All rights reserved. Privacy Policy  Contact